createdAt,value
2023-07-04T00:01:26.352Z,99956.86
2023-07-04T00:03:58.199Z,99960.04
2023-07-04T00:06:31.123Z,99954.83
2023-07-04T00:08:59.279Z,99953.55
2023-07-04T00:11:28.705Z,99958.05
2023-07-04T00:13:56.987Z,99962.40
2023-07-04T00:16:24.908Z,99959.98
2023-07-04T00:18:52.805Z,99960.89
2023-07-04T00:21:20.711Z,99962.94
2023-07-04T00:23:54.084Z,99963.85
2023-07-04T00:26:26.660Z,99962.95
2023-07-04T00:28:55.257Z,99968.27
2023-07-04T00:31:25.100Z,99973.56
2023-07-04T00:33:54.560Z,99978.54
2023-07-04T00:36:23.492Z,99971.76
2023-07-04T00:38:57.892Z,99973.20
2023-07-04T00:41:29.118Z,99974.51
2023-07-04T00:44:20.701Z,99971.84
2023-07-04T00:47:08.563Z,99975.45
2023-07-04T00:49:43.387Z,99978.20
2023-07-04T00:52:25.068Z,99979.25
2023-07-04T00:55:02.672Z,99976.77
2023-07-04T00:57:32.686Z,99974.31
2023-07-04T01:00:24.711Z,99975.85
2023-07-04T01:03:14.971Z,99980.75
2023-07-04T01:06:13.427Z,99977.98
2023-07-04T01:08:44.744Z,99972.59
2023-07-04T01:11:20.361Z,99972.79
2023-07-04T01:13:48.184Z,99972.95
2023-07-04T01:16:20.089Z,99972.52
2023-07-04T01:18:54.035Z,99976.54
2023-07-04T01:21:27.028Z,99980.30
2023-07-04T01:24:10.942Z,99981.06
2023-07-04T01:26:42.985Z,99982.52
2023-07-04T01:29:14.676Z,99983.64
2023-07-04T01:31:45.276Z,99980.08
2023-07-04T01:34:15.451Z,99981.38
2023-07-04T01:36:43.762Z,99978.73
2023-07-04T01:39:16.507Z,99982.70
2023-07-04T01:41:46.876Z,99981.73
2023-07-04T01:44:17.511Z,99978.80
2023-07-04T01:46:46.332Z,99976.66
2023-07-04T01:49:14.199Z,99972.96
2023-07-04T01:51:43.043Z,99975.81
2023-07-04T01:54:18.107Z,99973.40
2023-07-04T01:56:48.752Z,99984.04
2023-07-04T01:59:16.585Z,99986.92
2023-07-04T02:01:44.563Z,99986.02
2023-07-04T02:04:13.068Z,99986.47
2023-07-04T02:06:40.820Z,99990.56
2023-07-04T02:09:08.721Z,99989.44
2023-07-04T02:11:38.036Z,99994.33
2023-07-04T02:14:07.285Z,100000.08
2023-07-04T02:16:35.136Z,99999.16
2023-07-04T02:19:03.225Z,100001.53
2023-07-04T02:21:31.047Z,99998.50
2023-07-04T02:24:00.456Z,99996.88
2023-07-04T02:26:28.570Z,99991.31
2023-07-04T02:28:57.511Z,99986.16
2023-07-04T02:31:25.867Z,99979.74
2023-07-04T02:33:54.447Z,99979.25
2023-07-04T02:36:22.695Z,99982.23
2023-07-04T02:38:51.524Z,99984.52
2023-07-04T02:41:19.694Z,99987.17
2023-07-04T02:43:48.038Z,99988.61
2023-07-04T02:46:15.910Z,99986.61
2023-07-04T02:48:45.634Z,99988.23
2023-07-04T02:51:13.500Z,99991.86
2023-07-04T02:53:41.863Z,99995.92
2023-07-04T02:56:09.695Z,99996.23
2023-07-04T02:58:38.920Z,99998.34
2023-07-04T03:01:07.943Z,99997.60
2023-07-04T03:03:36.139Z,99992.89
2023-07-04T03:06:06.159Z,99989.01
2023-07-04T03:08:34.309Z,99987.30
2023-07-04T03:11:02.765Z,99987.60
2023-07-04T03:13:33.199Z,99993.06
2023-07-04T03:16:02.041Z,99998.99
2023-07-04T03:18:29.926Z,99996.44
2023-07-04T03:20:57.786Z,99997.13
2023-07-04T03:23:25.606Z,99998.25
2023-07-04T03:25:53.453Z,99998.14
2023-07-04T03:28:21.463Z,99997.05
2023-07-04T03:30:49.825Z,99993.59
2023-07-04T03:33:17.797Z,99989.35
2023-07-04T03:35:58.195Z,99982.73
2023-07-04T03:38:27.926Z,99978.44
2023-07-04T03:40:56.078Z,99977.51
2023-07-04T03:43:24.585Z,99977.04
2023-07-04T03:45:53.154Z,99976.42
2023-07-04T03:48:23.719Z,99975.45
2023-07-04T03:50:52.042Z,99971.59
2023-07-04T03:53:20.101Z,99970.45
2023-07-04T03:55:50.700Z,99978.63
2023-07-04T03:58:21.244Z,99985.06
2023-07-04T04:00:51.370Z,99983.33
2023-07-04T04:03:19.789Z,99978.97
2023-07-04T04:05:48.149Z,99981.02
2023-07-04T04:08:15.972Z,99984.51
2023-07-04T04:10:44.382Z,99988.64
2023-07-04T04:13:12.453Z,99993.30
2023-07-04T04:15:40.294Z,99998.30
2023-07-04T04:18:08.118Z,99999.10
2023-07-04T04:20:35.981Z,99999.74
2023-07-04T04:23:03.824Z,100004.16
2023-07-04T04:25:38.999Z,100008.73
2023-07-04T04:28:08.661Z,100003.48
2023-07-04T04:30:37.436Z,100001.52
2023-07-04T04:33:05.549Z,99999.98
2023-07-04T04:35:34.503Z,100003.67
2023-07-04T04:38:02.327Z,100001.80
2023-07-04T04:40:30.331Z,100007.83
2023-07-04T04:42:58.303Z,100014.29
2023-07-04T04:45:26.113Z,100016.49
2023-07-04T04:47:54.404Z,100016.09
2023-07-04T04:50:31.752Z,100014.89
2023-07-04T04:53:01.074Z,100016.40
2023-07-04T04:55:29.823Z,100015.35
2023-07-04T04:57:57.866Z,100015.84
2023-07-04T05:00:25.665Z,100014.84
2023-07-04T05:02:56.199Z,100016.20
2023-07-04T05:05:24.318Z,100017.30
2023-07-04T05:07:52.171Z,100018.59
2023-07-04T05:10:20.080Z,100023.77
2023-07-04T05:12:47.971Z,100021.98
2023-07-04T05:15:15.826Z,100023.00
2023-07-04T05:17:43.674Z,100024.80
2023-07-04T05:20:15.424Z,100028.48
2023-07-04T05:22:46.391Z,100029.21
2023-07-04T05:25:14.373Z,100030.11
2023-07-04T05:27:43.224Z,100033.70
2023-07-04T05:30:12.873Z,100037.99
2023-07-04T05:32:41.169Z,100040.44
2023-07-04T05:35:09.329Z,100042.67
2023-07-04T05:37:37.161Z,100042.64
2023-07-04T05:40:12.221Z,100043.86
2023-07-04T05:42:42.729Z,100047.48
2023-07-04T05:45:10.710Z,100048.48
2023-07-04T05:47:38.696Z,100050.35
2023-07-04T05:50:08.778Z,100047.69
2023-07-04T05:52:36.717Z,100050.46
2023-07-04T05:55:05.113Z,100048.58
2023-07-04T05:57:33.765Z,100050.04
2023-07-04T06:00:01.747Z,100054.58
2023-07-04T06:02:41.902Z,100058.34
2023-07-04T06:05:11.776Z,100058.61
2023-07-04T06:07:39.788Z,100058.67
2023-07-04T06:10:08.659Z,100061.23
2023-07-04T06:12:37.001Z,100059.19
2023-07-04T06:15:05.458Z,100059.89
2023-07-04T06:17:33.941Z,100062.16
2023-07-04T06:20:02.786Z,100061.05
2023-07-04T06:22:32.764Z,100061.75
2023-07-04T06:25:01.802Z,100058.34
2023-07-04T06:27:30.814Z,100057.20
2023-07-04T06:29:59.286Z,100058.29
2023-07-04T06:32:27.889Z,100056.94
2023-07-04T06:34:55.872Z,100058.31
2023-07-04T06:37:23.802Z,100058.73
2023-07-04T06:39:52.077Z,100055.65
2023-07-04T06:42:20.012Z,100062.71
2023-07-04T06:44:50.385Z,100065.62
2023-07-04T06:47:18.523Z,100060.77
2023-07-04T06:49:47.972Z,100064.75
2023-07-04T06:52:18.839Z,100066.38
2023-07-04T06:54:52.861Z,100070.92
2023-07-04T06:57:24.851Z,100069.05
2023-07-04T06:59:57.879Z,100076.92
2023-07-04T07:02:29.920Z,100068.82
2023-07-04T07:05:02.861Z,100066.96
2023-07-04T07:07:33.882Z,100072.77
2023-07-04T07:10:05.873Z,100073.35
2023-07-04T07:12:37.887Z,100075.23
2023-07-04T07:15:09.911Z,100072.14
2023-07-04T07:17:41.143Z,100070.95
2023-07-04T07:20:12.360Z,100066.46
2023-07-04T07:22:42.897Z,100066.42
2023-07-04T07:25:14.941Z,100069.41
2023-07-04T07:27:46.906Z,100067.51
2023-07-04T07:30:18.044Z,100067.74
2023-07-04T07:32:49.902Z,100067.54
2023-07-04T07:35:21.938Z,100064.02
2023-07-04T07:37:53.908Z,100059.63
2023-07-04T07:40:26.011Z,100059.16
2023-07-04T07:42:57.928Z,100054.32
2023-07-04T07:45:29.957Z,100055.02
2023-07-04T07:48:02.084Z,100055.20
2023-07-04T07:58:06.015Z,100050.09
2023-07-04T08:00:33.994Z,100050.23
2023-07-04T08:03:02.363Z,100040.41
2023-07-04T08:05:30.444Z,100042.67
2023-07-04T08:07:58.307Z,100041.70
2023-07-04T08:10:26.281Z,100048.73
2023-07-04T08:12:54.996Z,100044.84
2023-07-04T08:15:23.993Z,100047.00
2023-07-04T08:17:55.252Z,100047.81
2023-07-04T08:20:25.414Z,100043.85
2023-07-04T08:22:53.627Z,100044.59
2023-07-04T08:25:25.596Z,100048.38
2023-07-04T08:27:56.078Z,100044.36
2023-07-04T08:30:24.248Z,100041.70
2023-07-04T08:32:56.092Z,100042.50
2023-07-04T08:35:25.168Z,100043.23
2023-07-04T08:37:53.798Z,100037.23
2023-07-04T08:40:29.856Z,100032.98
2023-07-04T08:43:05.441Z,100033.77
2023-07-04T08:45:33.842Z,100033.78
2023-07-04T08:48:04.004Z,100035.32
2023-07-04T08:50:40.404Z,100036.30
2023-07-04T08:53:16.457Z,100033.01
2023-07-04T08:55:54.248Z,100032.39
2023-07-04T08:58:28.329Z,100032.55
2023-07-04T09:01:00.404Z,100026.38
2023-07-04T09:03:51.929Z,100027.41
2023-07-04T09:06:58.106Z,100028.16
2023-07-04T09:09:42.726Z,100026.40
2023-07-04T09:12:10.972Z,100026.75
2023-07-04T09:14:52.618Z,100026.39
2023-07-04T09:17:30.278Z,100023.92
2023-07-04T09:20:00.036Z,100024.02
2023-07-04T09:22:29.137Z,100024.01
2023-07-04T09:24:57.503Z,100023.05
2023-07-04T09:27:26.106Z,100021.86
2023-07-04T09:29:54.067Z,100017.64
2023-07-04T09:32:22.038Z,100023.92
2023-07-04T09:34:55.426Z,100027.77
2023-07-04T09:37:25.835Z,100030.64
2023-07-04T09:39:57.535Z,100025.36
2023-07-04T09:42:47.525Z,100028.07
2023-07-04T09:45:24.092Z,100027.48
2023-07-04T09:47:53.318Z,100019.02
2023-07-04T09:50:30.799Z,100023.86
2023-07-04T09:53:22.519Z,100028.06
2023-07-04T09:56:02.671Z,100031.56
2023-07-04T09:58:31.599Z,100029.04
2023-07-04T10:01:16.476Z,100029.36
2023-07-04T10:03:50.034Z,100030.74
2023-07-04T10:06:32.397Z,100031.29
2023-07-04T10:09:03.575Z,100029.46
2023-07-04T10:11:41.164Z,100026.15
2023-07-04T10:14:11.876Z,100032.19
2023-07-04T10:16:51.810Z,100031.64
2023-07-04T10:19:23.132Z,100030.14
2023-07-04T10:21:52.956Z,100039.16
2023-07-04T10:24:25.017Z,100038.15
2023-07-04T10:27:00.450Z,100037.73
2023-07-04T10:29:38.269Z,100033.06
2023-07-04T10:32:11.237Z,100036.94
2023-07-04T10:34:41.292Z,100031.70
2023-07-04T10:37:16.193Z,100029.73
2023-07-04T10:39:44.784Z,100028.97
2023-07-04T10:42:37.491Z,100027.14
2023-07-04T10:45:07.915Z,100026.38
2023-07-04T10:47:39.181Z,100023.77
2023-07-04T10:50:15.274Z,100024.14
2023-07-04T10:52:48.559Z,100019.18
2023-07-04T10:55:47.782Z,100018.65
2023-07-04T10:58:20.131Z,100017.14
2023-07-04T11:01:00.210Z,100013.33
2023-07-04T11:03:51.444Z,100002.52
2023-07-04T11:06:30.938Z,100004.83
2023-07-04T11:09:01.537Z,100009.59
2023-07-04T11:11:31.274Z,100011.77
2023-07-04T11:14:09.140Z,100002.55
2023-07-04T11:16:43.797Z,100001.17
2023-07-04T11:19:22.009Z,99990.45
2023-07-04T11:22:04.024Z,99994.70
2023-07-04T11:24:37.349Z,99997.69
2023-07-04T11:27:15.370Z,99994.04
2023-07-04T11:29:59.912Z,99993.58
2023-07-04T11:32:34.066Z,99991.09
2023-07-04T11:35:15.798Z,99991.15
2023-07-04T11:38:03.205Z,99987.24
2023-07-04T11:40:42.065Z,99982.63
2023-07-04T11:43:25.998Z,99979.93
2023-07-04T11:45:57.156Z,99985.23
2023-07-04T11:48:29.568Z,99988.92
2023-07-04T11:51:08.046Z,99991.23
2023-07-04T11:53:49.530Z,99985.03
2023-07-04T11:56:34.889Z,99982.00
2023-07-04T11:59:12.277Z,99973.41
2023-07-04T12:01:56.326Z,99976.80
2023-07-04T12:04:48.081Z,99978.67
2023-07-04T12:07:40.683Z,99973.48
2023-07-04T12:10:16.456Z,99975.06
2023-07-04T12:12:45.834Z,99976.12
2023-07-04T12:15:28.056Z,99974.73
2023-07-04T12:18:00.151Z,99971.80
2023-07-04T12:20:31.805Z,99965.97
2023-07-04T12:23:02.682Z,99971.46
2023-07-04T12:25:39.452Z,99970.17
2023-07-04T12:28:12.445Z,99964.27
2023-07-04T12:30:58.337Z,99965.39
2023-07-04T12:33:32.646Z,99971.54
2023-07-04T12:36:11.012Z,99966.73
2023-07-04T12:38:45.539Z,99964.45
2023-07-04T12:41:27.278Z,99967.21
2023-07-04T12:51:45.524Z,99966.70
2023-07-04T12:54:16.000Z,99961.95
2023-07-04T12:56:48.293Z,99952.00
2023-07-04T12:59:34.679Z,99951.27
2023-07-04T13:02:14.955Z,99955.89
2023-07-04T13:04:43.944Z,99959.23
2023-07-04T13:07:12.566Z,99954.18
2023-07-04T13:09:44.959Z,99952.23
2023-07-04T13:12:13.769Z,99949.56
2023-07-04T13:14:41.806Z,99948.45
2023-07-04T13:17:12.565Z,99949.42
2023-07-04T13:19:44.823Z,99948.77
2023-07-04T13:22:16.025Z,99945.89
2023-07-04T13:25:13.828Z,99949.61
2023-07-04T13:27:31.814Z,99950.10
2023-07-04T13:35:38.110Z,99947.39
2023-07-04T13:40:37.970Z,99950.84
2023-07-04T13:45:44.297Z,99947.11
2023-07-04T13:48:12.582Z,99942.23
2023-07-04T13:50:40.718Z,99940.38
2023-07-04T13:55:41.862Z,99948.70
2023-07-04T13:58:10.215Z,99949.04
2023-07-04T14:03:01.309Z,99949.23
2023-07-04T14:06:00.491Z,99935.19
2023-07-04T14:08:31.536Z,99940.59
2023-07-04T14:11:09.076Z,99943.28
2023-07-04T14:13:38.495Z,99943.85
2023-07-04T14:21:16.161Z,99939.96
2023-07-04T14:23:44.477Z,99940.16
2023-07-04T14:26:16.548Z,99936.80
2023-07-04T14:28:45.987Z,99942.23
2023-07-04T14:31:14.449Z,99937.52
2023-07-04T14:33:42.706Z,99935.56
2023-07-04T14:36:10.727Z,99938.60
2023-07-04T14:38:38.676Z,99939.89
2023-07-04T14:43:42.778Z,99940.33
2023-07-04T14:46:10.922Z,99940.58
2023-07-04T14:48:39.254Z,99933.64
2023-07-04T14:51:10.827Z,99933.10
2023-07-04T14:53:39.462Z,99931.16
2023-07-04T14:56:10.808Z,99929.19
2023-07-04T14:58:39.686Z,99930.62
2023-07-04T15:01:08.391Z,99936.66
2023-07-04T15:03:36.503Z,99936.73
2023-07-04T15:06:07.903Z,99938.36
2023-07-04T15:08:37.258Z,99937.11
2023-07-04T15:11:06.547Z,99938.40
2023-07-04T15:13:35.251Z,99935.50
2023-07-04T15:16:07.402Z,99932.52
2023-07-04T15:18:38.324Z,99929.16
2023-07-04T15:21:08.616Z,99927.28
2023-07-04T15:23:37.803Z,99927.86
2023-07-04T15:26:24.989Z,99922.89
2023-07-04T15:28:55.824Z,99925.42
2023-07-04T15:31:24.340Z,99925.48
2023-07-04T15:33:53.587Z,99926.08
2023-07-04T15:36:22.624Z,99923.52
2023-07-04T15:38:50.816Z,99926.31
2023-07-04T15:41:22.716Z,99929.38
2023-07-04T15:43:50.611Z,99926.46
2023-07-04T15:46:19.933Z,99926.65
2023-07-04T15:48:48.189Z,99929.89
2023-07-04T15:51:19.265Z,99923.15
2023-07-04T15:53:48.585Z,99927.58
2023-07-04T15:56:19.926Z,99927.28
2023-07-04T16:06:24.492Z,99929.09
2023-07-04T16:08:52.465Z,99926.30
2023-07-04T16:11:20.763Z,99924.25
2023-07-04T16:13:49.299Z,99927.02
2023-07-04T16:16:18.173Z,99930.14
2023-07-04T16:18:46.379Z,99934.29
2023-07-04T16:21:14.260Z,99933.45
2023-07-04T16:23:42.517Z,99934.13
2023-07-04T16:26:12.174Z,99931.75
2023-07-04T16:28:40.494Z,99932.63
2023-07-04T16:31:12.462Z,99936.19
2023-07-04T16:33:41.326Z,99934.28
2023-07-04T16:36:09.846Z,99934.83
2023-07-04T16:38:38.664Z,99932.48
2023-07-04T16:41:13.058Z,99932.58
2023-07-04T16:43:42.434Z,99929.20
2023-07-04T16:46:10.981Z,99928.94
2023-07-04T16:48:39.525Z,99927.16
2023-07-04T16:51:10.276Z,99927.60
2023-07-04T16:53:39.496Z,99929.05
2023-07-04T16:56:08.856Z,99931.53
2023-07-04T16:58:37.859Z,99931.13
2023-07-04T17:01:06.475Z,99933.95
2023-07-04T17:03:34.706Z,99935.73
2023-07-04T17:06:05.525Z,99936.31
2023-07-04T17:08:34.906Z,99938.14
2023-07-04T17:11:07.328Z,99942.14
2023-07-04T17:13:39.898Z,99942.59
2023-07-04T17:16:10.634Z,99942.34
2023-07-04T17:18:39.767Z,99940.27
2023-07-04T17:21:09.047Z,99942.92
2023-07-04T17:23:37.174Z,99943.96
2023-07-04T17:26:06.266Z,99940.96
2023-07-04T17:28:35.346Z,99941.98
2023-07-04T17:31:07.141Z,99938.45
2023-07-04T17:33:36.757Z,99944.36
